sensor_id;sensor_type;location;lat;lon;timestamp;P1;durP1;ratioP1;P2;durP2;ratioP2
32323;SDS011;25666;44.350;9.222;2023-01-10T00:00:22;1.30;;;0.68;;
32323;SDS011;25666;44.350;9.222;2023-01-10T00:02:50;1.13;;;0.65;;
32323;SDS011;25666;44.350;9.222;2023-01-10T00:05:17;1.25;;;0.80;;
32323;SDS011;25666;44.350;9.222;2023-01-10T00:07:43;0.60;;;0.60;;
32323;SDS011;25666;44.350;9.222;2023-01-10T00:10:09;0.73;;;0.60;;
32323;SDS011;25666;44.350;9.222;2023-01-10T00:12:35;0.47;;;0.47;;
32323;SDS011;25666;44.350;9.222;2023-01-10T00:15:19;1.23;;;0.68;;
32323;SDS011;25666;44.350;9.222;2023-01-10T00:17:45;0.43;;;0.43;;
32323;SDS011;25666;44.350;9.222;2023-01-10T00:20:11;0.75;;;0.60;;
32323;SDS011;25666;44.350;9.222;2023-01-10T00:22:36;0.80;;;0.60;;
32323;SDS011;25666;44.350;9.222;2023-01-10T00:25:02;0.75;;;0.70;;
32323;SDS011;25666;44.350;9.222;2023-01-10T00:27:28;0.80;;;0.45;;
32323;SDS011;25666;44.350;9.222;2023-01-10T00:29:53;0.82;;;0.55;;
32323;SDS011;25666;44.350;9.222;2023-01-10T00:32:25;1.65;;;0.50;;
32323;SDS011;25666;44.350;9.222;2023-01-10T00:34:51;0.75;;;0.47;;
32323;SDS011;25666;44.350;9.222;2023-01-10T00:37:16;0.52;;;0.50;;
32323;SDS011;25666;44.350;9.222;2023-01-10T00:39:45;0.60;;;0.40;;
32323;SDS011;25666;44.350;9.222;2023-01-10T00:42:11;1.00;;;0.60;;
32323;SDS011;25666;44.350;9.222;2023-01-10T00:44:55;2.30;;;0.52;;
32323;SDS011;25666;44.350;9.222;2023-01-10T00:47:20;0.40;;;0.40;;
32323;SDS011;25666;44.350;9.222;2023-01-10T00:49:46;0.70;;;0.57;;
32323;SDS011;25666;44.350;9.222;2023-01-10T00:52:11;0.73;;;0.55;;
32323;SDS011;25666;44.350;9.222;2023-01-10T00:54:37;0.60;;;0.60;;
32323;SDS011;25666;44.350;9.222;2023-01-10T00:57:03;0.68;;;0.50;;
32323;SDS011;25666;44.350;9.222;2023-01-10T00:59:28;0.50;;;0.50;;
32323;SDS011;25666;44.350;9.222;2023-01-10T01:01:54;0.40;;;0.40;;
32323;SDS011;25666;44.350;9.222;2023-01-10T01:04:19;0.60;;;0.60;;
32323;SDS011;25666;44.350;9.222;2023-01-10T01:06:45;0.70;;;0.50;;
32323;SDS011;25666;44.350;9.222;2023-01-10T01:09:12;0.40;;;0.40;;
32323;SDS011;25666;44.350;9.222;2023-01-10T01:11:38;0.40;;;0.40;;
32323;SDS011;25666;44.350;9.222;2023-01-10T01:14:06;0.50;;;0.50;;
32323;SDS011;25666;44.350;9.222;2023-01-10T01:16:32;0.50;;;0.40;;
32323;SDS011;25666;44.350;9.222;2023-01-10T01:18:58;1.85;;;0.50;;
32323;SDS011;25666;44.350;9.222;2023-01-10T01:21:23;0.57;;;0.50;;
32323;SDS011;25666;44.350;9.222;2023-01-10T01:23:55;0.95;;;0.50;;
32323;SDS011;25666;44.350;9.222;2023-01-10T01:26:27;0.93;;;0.40;;
32323;SDS011;25666;44.350;9.222;2023-01-10T01:28:52;0.45;;;0.45;;
32323;SDS011;25666;44.350;9.222;2023-01-10T01:31:21;0.70;;;0.40;;
32323;SDS011;25666;44.350;9.222;2023-01-10T01:33:50;1.58;;;0.50;;
32323;SDS011;25666;44.350;9.222;2023-01-10T01:36:16;0.52;;;0.40;;
32323;SDS011;25666;44.350;9.222;2023-01-10T01:38:41;0.57;;;0.40;;
32323;SDS011;25666;44.350;9.222;2023-01-10T01:41:07;2.42;;;0.43;;
32323;SDS011;25666;44.350;9.222;2023-01-10T01:43:57;0.50;;;0.40;;
32323;SDS011;25666;44.350;9.222;2023-01-10T01:46:25;1.30;;;0.50;;
32323;SDS011;25666;44.350;9.222;2023-01-10T01:48:50;0.95;;;0.93;;
32323;SDS011;25666;44.350;9.222;2023-01-10T01:51:17;0.55;;;0.40;;
32323;SDS011;25666;44.350;9.222;2023-01-10T01:53:47;0.70;;;0.40;;
32323;SDS011;25666;44.350;9.222;2023-01-10T01:56:27;1.00;;;0.60;;
32323;SDS011;25666;44.350;9.222;2023-01-10T01:59:05;1.50;;;0.75;;
32323;SDS011;25666;44.350;9.222;2023-01-10T02:01:38;0.50;;;0.40;;
32323;SDS011;25666;44.350;9.222;2023-01-10T02:04:11;0.40;;;0.40;;
32323;SDS011;25666;44.350;9.222;2023-01-10T02:06:41;1.58;;;0.75;;
32323;SDS011;25666;44.350;9.222;2023-01-10T02:09:27;0.65;;;0.60;;
32323;SDS011;25666;44.350;9.222;2023-01-10T02:11:56;0.60;;;0.50;;
32323;SDS011;25666;44.350;9.222;2023-01-10T02:14:22;0.40;;;0.40;;
32323;SDS011;25666;44.350;9.222;2023-01-10T02:16:50;0.73;;;0.50;;
32323;SDS011;25666;44.350;9.222;2023-01-10T02:22:38;0.30;;;0.30;;
32323;SDS011;25666;44.350;9.222;2023-01-10T02:37:11;1.02;;;0.50;;
32323;SDS011;25666;44.350;9.222;2023-01-10T02:42:24;0.90;;;0.40;;
32323;SDS011;25666;44.350;9.222;2023-01-10T02:45:05;1.13;;;0.52;;
32323;SDS011;25666;44.350;9.222;2023-01-10T02:47:59;2.25;;;0.50;;
32323;SDS011;25666;44.350;9.222;2023-01-10T02:50:40;1.75;;;0.50;;
32323;SDS011;25666;44.350;9.222;2023-01-10T02:53:22;0.40;;;0.30;;
32323;SDS011;25666;44.350;9.222;2023-01-10T03:04:01;2.55;;;0.65;;
32323;SDS011;25666;44.350;9.222;2023-01-10T03:07:09;2.83;;;0.57;;
32323;SDS011;25666;44.350;9.222;2023-01-10T03:10:17;0.93;;;0.40;;
32323;SDS011;25666;44.350;9.222;2023-01-10T03:13:02;0.40;;;0.40;;
32323;SDS011;25666;44.350;9.222;2023-01-10T03:15:34;1.80;;;0.75;;
32323;SDS011;25666;44.350;9.222;2023-01-10T03:18:05;0.55;;;0.40;;
32323;SDS011;25666;44.350;9.222;2023-01-10T03:20:37;1.58;;;0.75;;
32323;SDS011;25666;44.350;9.222;2023-01-10T03:23:06;1.35;;;0.70;;
32323;SDS011;25666;44.350;9.222;2023-01-10T03:25:34;2.58;;;0.50;;
32323;SDS011;25666;44.350;9.222;2023-01-10T03:28:20;0.88;;;0.45;;
32323;SDS011;25666;44.350;9.222;2023-01-10T03:30:59;1.02;;;0.52;;
32323;SDS011;25666;44.350;9.222;2023-01-10T03:33:32;1.95;;;0.60;;
32323;SDS011;25666;44.350;9.222;2023-01-10T03:38:45;0.50;;;0.50;;
32323;SDS011;25666;44.350;9.222;2023-01-10T03:50:18;0.57;;;0.50;;
32323;SDS011;25666;44.350;9.222;2023-01-10T03:52:46;0.40;;;0.40;;
32323;SDS011;25666;44.350;9.222;2023-01-10T03:55:13;0.70;;;0.50;;
32323;SDS011;25666;44.350;9.222;2023-01-10T03:57:43;0.50;;;0.50;;
32323;SDS011;25666;44.350;9.222;2023-01-10T04:00:13;0.88;;;0.60;;
32323;SDS011;25666;44.350;9.222;2023-01-10T04:02:40;0.40;;;0.40;;
32323;SDS011;25666;44.350;9.222;2023-01-10T04:05:05;0.98;;;0.60;;
32323;SDS011;25666;44.350;9.222;2023-01-10T04:07:32;1.05;;;0.77;;
32323;SDS011;25666;44.350;9.222;2023-01-10T04:09:57;1.38;;;0.70;;
32323;SDS011;25666;44.350;9.222;2023-01-10T04:12:23;1.15;;;0.70;;
32323;SDS011;25666;44.350;9.222;2023-01-10T04:14:48;0.70;;;0.70;;
32323;SDS011;25666;44.350;9.222;2023-01-10T04:17:14;0.65;;;0.50;;
32323;SDS011;25666;44.350;9.222;2023-01-10T04:19:40;1.05;;;0.88;;
32323;SDS011;25666;44.350;9.222;2023-01-10T04:22:06;0.60;;;0.60;;
32323;SDS011;25666;44.350;9.222;2023-01-10T04:24:32;1.25;;;0.65;;
32323;SDS011;25666;44.350;9.222;2023-01-10T04:26:58;8.65;;;1.33;;
32323;SDS011;25666;44.350;9.222;2023-01-10T04:29:24;3.03;;;0.75;;
32323;SDS011;25666;44.350;9.222;2023-01-10T04:31:49;1.52;;;0.60;;
32323;SDS011;25666;44.350;9.222;2023-01-10T04:34:15;6.90;;;0.90;;
32323;SDS011;25666;44.350;9.222;2023-01-10T04:36:41;0.57;;;0.57;;
32323;SDS011;25666;44.350;9.222;2023-01-10T04:39:07;0.85;;;0.45;;
32323;SDS011;25666;44.350;9.222;2023-01-10T04:41:33;0.50;;;0.50;;
32323;SDS011;25666;44.350;9.222;2023-01-10T04:43:58;1.08;;;0.85;;
32323;SDS011;25666;44.350;9.222;2023-01-10T04:46:24;0.50;;;0.50;;
32323;SDS011;25666;44.350;9.222;2023-01-10T04:48:50;1.23;;;0.77;;
32323;SDS011;25666;44.350;9.222;2023-01-10T04:51:16;0.63;;;0.63;;
32323;SDS011;25666;44.350;9.222;2023-01-10T04:53:41;0.40;;;0.40;;
32323;SDS011;25666;44.350;9.222;2023-01-10T04:56:08;0.70;;;0.50;;
32323;SDS011;25666;44.350;9.222;2023-01-10T04:58:39;0.55;;;0.43;;
32323;SDS011;25666;44.350;9.222;2023-01-10T05:01:08;2.53;;;0.55;;
32323;SDS011;25666;44.350;9.222;2023-01-10T05:03:35;2.45;;;0.40;;
32323;SDS011;25666;44.350;9.222;2023-01-10T05:06:01;0.77;;;0.50;;
32323;SDS011;25666;44.350;9.222;2023-01-10T05:08:27;0.30;;;0.30;;
32323;SDS011;25666;44.350;9.222;2023-01-10T05:10:53;2.65;;;0.45;;
32323;SDS011;25666;44.350;9.222;2023-01-10T05:13:18;0.68;;;0.47;;
32323;SDS011;25666;44.350;9.222;2023-01-10T05:15:44;2.83;;;0.70;;
32323;SDS011;25666;44.350;9.222;2023-01-10T05:18:09;0.30;;;0.30;;
32323;SDS011;25666;44.350;9.222;2023-01-10T05:20:35;1.10;;;0.50;;
32323;SDS011;25666;44.350;9.222;2023-01-10T05:23:00;0.80;;;0.40;;
32323;SDS011;25666;44.350;9.222;2023-01-10T05:25:26;11.02;;;1.23;;
32323;SDS011;25666;44.350;9.222;2023-01-10T05:27:51;0.75;;;0.60;;
32323;SDS011;25666;44.350;9.222;2023-01-10T05:30:17;1.13;;;0.50;;
32323;SDS011;25666;44.350;9.222;2023-01-10T05:32:43;1.33;;;0.45;;
32323;SDS011;25666;44.350;9.222;2023-01-10T05:35:09;0.80;;;0.40;;
32323;SDS011;25666;44.350;9.222;2023-01-10T05:37:34;0.50;;;0.50;;
32323;SDS011;25666;44.350;9.222;2023-01-10T05:40:00;7.22;;;0.50;;
32323;SDS011;25666;44.350;9.222;2023-01-10T05:42:25;2.55;;;0.50;;
32323;SDS011;25666;44.350;9.222;2023-01-10T05:44:51;1.27;;;0.50;;
32323;SDS011;25666;44.350;9.222;2023-01-10T05:47:17;1.40;;;0.52;;
32323;SDS011;25666;44.350;9.222;2023-01-10T05:49:42;2.58;;;0.60;;
32323;SDS011;25666;44.350;9.222;2023-01-10T05:52:07;0.85;;;0.45;;
32323;SDS011;25666;44.350;9.222;2023-01-10T05:54:33;12.23;;;1.80;;
32323;SDS011;25666;44.350;9.222;2023-01-10T05:56:59;0.43;;;0.40;;
32323;SDS011;25666;44.350;9.222;2023-01-10T05:59:24;2.42;;;0.75;;
32323;SDS011;25666;44.350;9.222;2023-01-10T06:01:49;2.35;;;0.50;;
32323;SDS011;25666;44.350;9.222;2023-01-10T06:04:15;1.10;;;0.50;;
32323;SDS011;25666;44.350;9.222;2023-01-10T06:06:40;1.17;;;0.63;;
32323;SDS011;25666;44.350;9.222;2023-01-10T06:09:06;2.08;;;0.40;;
32323;SDS011;25666;44.350;9.222;2023-01-10T06:11:32;0.50;;;0.50;;
32323;SDS011;25666;44.350;9.222;2023-01-10T06:14:00;0.40;;;0.40;;
32323;SDS011;25666;44.350;9.222;2023-01-10T06:16:26;2.35;;;0.65;;
32323;SDS011;25666;44.350;9.222;2023-01-10T06:18:52;0.68;;;0.50;;
32323;SDS011;25666;44.350;9.222;2023-01-10T06:21:18;2.67;;;0.43;;
32323;SDS011;25666;44.350;9.222;2023-01-10T06:23:43;3.83;;;1.02;;
32323;SDS011;25666;44.350;9.222;2023-01-10T06:26:09;3.08;;;0.75;;
32323;SDS011;25666;44.350;9.222;2023-01-10T06:28:34;1.65;;;1.33;;
32323;SDS011;25666;44.350;9.222;2023-01-10T06:31:00;1.17;;;0.50;;
32323;SDS011;25666;44.350;9.222;2023-01-10T06:33:26;0.30;;;0.30;;
32323;SDS011;25666;44.350;9.222;2023-01-10T06:35:51;0.40;;;0.40;;
32323;SDS011;25666;44.350;9.222;2023-01-10T06:38:17;0.55;;;0.45;;
32323;SDS011;25666;44.350;9.222;2023-01-10T06:40:42;1.05;;;0.50;;
32323;SDS011;25666;44.350;9.222;2023-01-10T06:43:08;0.47;;;0.47;;
32323;SDS011;25666;44.350;9.222;2023-01-10T06:45:34;8.15;;;0.80;;
32323;SDS011;25666;44.350;9.222;2023-01-10T06:47:59;0.43;;;0.43;;
32323;SDS011;25666;44.350;9.222;2023-01-10T06:50:25;5.82;;;0.70;;
32323;SDS011;25666;44.350;9.222;2023-01-10T06:52:57;3.40;;;0.90;;
32323;SDS011;25666;44.350;9.222;2023-01-10T06:55:24;1.95;;;1.02;;
32323;SDS011;25666;44.350;9.222;2023-01-10T06:57:54;1.20;;;0.60;;
32323;SDS011;25666;44.350;9.222;2023-01-10T07:00:23;1.45;;;0.60;;
32323;SDS011;25666;44.350;9.222;2023-01-10T07:02:51;0.50;;;0.50;;
32323;SDS011;25666;44.350;9.222;2023-01-10T07:05:18;0.90;;;0.60;;
32323;SDS011;25666;44.350;9.222;2023-01-10T07:07:45;0.65;;;0.57;;
32323;SDS011;25666;44.350;9.222;2023-01-10T07:10:11;0.85;;;0.50;;
32323;SDS011;25666;44.350;9.222;2023-01-10T07:12:36;2.92;;;0.75;;
32323;SDS011;25666;44.350;9.222;2023-01-10T07:15:02;0.50;;;0.50;;
32323;SDS011;25666;44.350;9.222;2023-01-10T07:17:28;3.35;;;0.60;;
32323;SDS011;25666;44.350;9.222;2023-01-10T07:19:54;6.93;;;1.45;;
32323;SDS011;25666;44.350;9.222;2023-01-10T07:22:20;3.25;;;0.70;;
32323;SDS011;25666;44.350;9.222;2023-01-10T07:24:45;1.58;;;0.73;;
32323;SDS011;25666;44.350;9.222;2023-01-10T07:27:10;1.75;;;0.95;;
32323;SDS011;25666;44.350;9.222;2023-01-10T07:29:36;1.17;;;1.00;;
32323;SDS011;25666;44.350;9.222;2023-01-10T07:32:02;1.67;;;1.00;;
32323;SDS011;25666;44.350;9.222;2023-01-10T07:34:27;0.68;;;0.60;;
32323;SDS011;25666;44.350;9.222;2023-01-10T07:36:53;4.30;;;0.93;;
32323;SDS011;25666;44.350;9.222;2023-01-10T07:39:18;0.85;;;0.70;;
32323;SDS011;25666;44.350;9.222;2023-01-10T07:41:46;2.92;;;0.50;;
32323;SDS011;25666;44.350;9.222;2023-01-10T07:44:13;10.07;;;2.58;;
32323;SDS011;25666;44.350;9.222;2023-01-10T07:46:39;3.78;;;1.10;;
32323;SDS011;25666;44.350;9.222;2023-01-10T07:49:05;1.83;;;0.77;;
32323;SDS011;25666;44.350;9.222;2023-01-10T07:51:30;1.20;;;0.82;;
32323;SDS011;25666;44.350;9.222;2023-01-10T07:53:56;0.75;;;0.63;;
32323;SDS011;25666;44.350;9.222;2023-01-10T07:56:22;1.30;;;0.70;;
32323;SDS011;25666;44.350;9.222;2023-01-10T07:58:47;5.18;;;0.80;;
32323;SDS011;25666;44.350;9.222;2023-01-10T08:01:13;1.58;;;0.77;;
32323;SDS011;25666;44.350;9.222;2023-01-10T08:03:38;0.40;;;0.40;;
32323;SDS011;25666;44.350;9.222;2023-01-10T08:06:05;0.88;;;0.60;;
32323;SDS011;25666;44.350;9.222;2023-01-10T08:08:32;3.25;;;0.65;;
32323;SDS011;25666;44.350;9.222;2023-01-10T08:10:58;0.73;;;0.60;;
32323;SDS011;25666;44.350;9.222;2023-01-10T08:13:26;1.58;;;0.73;;
32323;SDS011;25666;44.350;9.222;2023-01-10T08:15:52;0.68;;;0.68;;
32323;SDS011;25666;44.350;9.222;2023-01-10T08:18:18;0.70;;;0.60;;
32323;SDS011;25666;44.350;9.222;2023-01-10T08:20:47;0.50;;;0.50;;
32323;SDS011;25666;44.350;9.222;2023-01-10T08:23:16;1.63;;;0.60;;
32323;SDS011;25666;44.350;9.222;2023-01-10T08:25:42;0.50;;;0.50;;
32323;SDS011;25666;44.350;9.222;2023-01-10T08:28:07;1.05;;;0.70;;
32323;SDS011;25666;44.350;9.222;2023-01-10T08:30:33;0.55;;;0.55;;
32323;SDS011;25666;44.350;9.222;2023-01-10T08:33:02;0.40;;;0.40;;
32323;SDS011;25666;44.350;9.222;2023-01-10T08:35:29;4.43;;;0.70;;
32323;SDS011;25666;44.350;9.222;2023-01-10T08:38:00;1.88;;;0.50;;
32323;SDS011;25666;44.350;9.222;2023-01-10T08:40:25;0.45;;;0.45;;
32323;SDS011;25666;44.350;9.222;2023-01-10T08:42:56;0.50;;;0.50;;
32323;SDS011;25666;44.350;9.222;2023-01-10T08:45:22;0.57;;;0.57;;
32323;SDS011;25666;44.350;9.222;2023-01-10T08:47:47;5.50;;;0.52;;
32323;SDS011;25666;44.350;9.222;2023-01-10T08:50:13;0.30;;;0.30;;
32323;SDS011;25666;44.350;9.222;2023-01-10T08:52:39;0.50;;;0.50;;
32323;SDS011;25666;44.350;9.222;2023-01-10T08:55:04;0.50;;;0.50;;
32323;SDS011;25666;44.350;9.222;2023-01-10T08:57:30;0.63;;;0.60;;
32323;SDS011;25666;44.350;9.222;2023-01-10T08:59:56;2.50;;;0.60;;
32323;SDS011;25666;44.350;9.222;2023-01-10T09:02:21;1.73;;;0.52;;
32323;SDS011;25666;44.350;9.222;2023-01-10T09:04:47;0.95;;;0.40;;
32323;SDS011;25666;44.350;9.222;2023-01-10T09:07:12;0.95;;;0.63;;
32323;SDS011;25666;44.350;9.222;2023-01-10T09:09:38;0.30;;;0.30;;
32323;SDS011;25666;44.350;9.222;2023-01-10T09:12:03;1.20;;;0.38;;
32323;SDS011;25666;44.350;9.222;2023-01-10T09:14:49;0.55;;;0.40;;
32323;SDS011;25666;44.350;9.222;2023-01-10T09:17:15;0.40;;;0.40;;
32323;SDS011;25666;44.350;9.222;2023-01-10T09:19:40;2.50;;;0.50;;
32323;SDS011;25666;44.350;9.222;2023-01-10T09:22:06;0.35;;;0.35;;
32323;SDS011;25666;44.350;9.222;2023-01-10T09:24:31;0.40;;;0.40;;
32323;SDS011;25666;44.350;9.222;2023-01-10T09:26:56;3.40;;;0.40;;
32323;SDS011;25666;44.350;9.222;2023-01-10T09:29:22;0.35;;;0.35;;
32323;SDS011;25666;44.350;9.222;2023-01-10T09:31:47;0.30;;;0.30;;
32323;SDS011;25666;44.350;9.222;2023-01-10T09:34:13;1.85;;;0.70;;
32323;SDS011;25666;44.350;9.222;2023-01-10T09:36:39;0.45;;;0.40;;
32323;SDS011;25666;44.350;9.222;2023-01-10T09:39:04;0.38;;;0.30;;
32323;SDS011;25666;44.350;9.222;2023-01-10T09:41:54;8.90;;;0.43;;
32323;SDS011;25666;44.350;9.222;2023-01-10T09:47:05;0.35;;;0.35;;
32323;SDS011;25666;44.350;9.222;2023-01-10T09:52:22;0.50;;;0.50;;
32323;SDS011;25666;44.350;9.222;2023-01-10T09:54:52;0.40;;;0.40;;
32323;SDS011;25666;44.350;9.222;2023-01-10T09:57:20;0.85;;;0.40;;
32323;SDS011;25666;44.350;9.222;2023-01-10T09:59:47;0.40;;;0.40;;
32323;SDS011;25666;44.350;9.222;2023-01-10T10:05:17;0.60;;;0.40;;
32323;SDS011;25666;44.350;9.222;2023-01-10T10:07:45;0.45;;;0.40;;
32323;SDS011;25666;44.350;9.222;2023-01-10T10:10:25;0.38;;;0.38;;
32323;SDS011;25666;44.350;9.222;2023-01-10T10:20:53;1.10;;;0.50;;
32323;SDS011;25666;44.350;9.222;2023-01-10T10:26:21;1.02;;;0.75;;
32323;SDS011;25666;44.350;9.222;2023-01-10T10:28:45;0.40;;;0.40;;
32323;SDS011;25666;44.350;9.222;2023-01-10T10:37:04;3.72;;;0.50;;
32323;SDS011;25666;44.350;9.222;2023-01-10T10:39:55;2.63;;;0.40;;
32323;SDS011;25666;44.350;9.222;2023-01-10T10:42:28;0.55;;;0.47;;
32323;SDS011;25666;44.350;9.222;2023-01-10T10:45:34;0.32;;;0.32;;
32323;SDS011;25666;44.350;9.222;2023-01-10T10:48:02;0.32;;;0.32;;
32323;SDS011;25666;44.350;9.222;2023-01-10T10:50:39;1.95;;;0.50;;
32323;SDS011;25666;44.350;9.222;2023-01-10T10:53:14;2.83;;;0.43;;
32323;SDS011;25666;44.350;9.222;2023-01-10T10:55:40;0.30;;;0.30;;
32323;SDS011;25666;44.350;9.222;2023-01-10T10:58:06;0.38;;;0.38;;
32323;SDS011;25666;44.350;9.222;2023-01-10T11:00:36;1.75;;;0.50;;
32323;SDS011;25666;44.350;9.222;2023-01-10T11:05:59;0.40;;;0.40;;
32323;SDS011;25666;44.350;9.222;2023-01-10T11:08:26;0.40;;;0.40;;
32323;SDS011;25666;44.350;9.222;2023-01-10T11:10:54;0.32;;;0.30;;
32323;SDS011;25666;44.350;9.222;2023-01-10T11:16:31;0.77;;;0.40;;
32323;SDS011;25666;44.350;9.222;2023-01-10T11:19:15;1.25;;;0.55;;
32323;SDS011;25666;44.350;9.222;2023-01-10T11:21:44;0.65;;;0.50;;
32323;SDS011;25666;44.350;9.222;2023-01-10T11:24:24;0.40;;;0.40;;
32323;SDS011;25666;44.350;9.222;2023-01-10T11:26:58;0.32;;;0.30;;
32323;SDS011;25666;44.350;9.222;2023-01-10T11:29:38;0.85;;;0.57;;
32323;SDS011;25666;44.350;9.222;2023-01-10T11:32:09;2.90;;;1.00;;
32323;SDS011;25666;44.350;9.222;2023-01-10T11:34:39;0.40;;;0.40;;
32323;SDS011;25666;44.350;9.222;2023-01-10T11:37:33;0.95;;;0.50;;
32323;SDS011;25666;44.350;9.222;2023-01-10T11:40:19;0.40;;;0.40;;
32323;SDS011;25666;44.350;9.222;2023-01-10T11:42:50;0.50;;;0.50;;
32323;SDS011;25666;44.350;9.222;2023-01-10T11:45:32;0.52;;;0.50;;
32323;SDS011;25666;44.350;9.222;2023-01-10T11:48:07;0.80;;;0.60;;
32323;SDS011;25666;44.350;9.222;2023-01-10T11:50:41;0.88;;;0.50;;
32323;SDS011;25666;44.350;9.222;2023-01-10T11:53:28;1.27;;;0.60;;
32323;SDS011;25666;44.350;9.222;2023-01-10T11:56:02;0.55;;;0.52;;
32323;SDS011;25666;44.350;9.222;2023-01-10T11:58:29;0.60;;;0.50;;
32323;SDS011;25666;44.350;9.222;2023-01-10T12:00:56;0.57;;;0.30;;
32323;SDS011;25666;44.350;9.222;2023-01-10T12:03:23;2.92;;;1.52;;
32323;SDS011;25666;44.350;9.222;2023-01-10T12:05:57;0.73;;;0.43;;
32323;SDS011;25666;44.350;9.222;2023-01-10T12:08:26;0.60;;;0.60;;
32323;SDS011;25666;44.350;9.222;2023-01-10T12:10:58;0.30;;;0.30;;
32323;SDS011;25666;44.350;9.222;2023-01-10T12:15:53;0.40;;;0.40;;
32323;SDS011;25666;44.350;9.222;2023-01-10T12:18:40;0.32;;;0.32;;
32323;SDS011;25666;44.350;9.222;2023-01-10T12:21:06;3.50;;;0.73;;
32323;SDS011;25666;44.350;9.222;2023-01-10T12:23:34;0.70;;;0.70;;
32323;SDS011;25666;44.350;9.222;2023-01-10T12:26:05;0.55;;;0.50;;
32323;SDS011;25666;44.350;9.222;2023-01-10T12:28:33;0.70;;;0.43;;
32323;SDS011;25666;44.350;9.222;2023-01-10T12:31:00;0.55;;;0.50;;
32323;SDS011;25666;44.350;9.222;2023-01-10T12:33:32;1.17;;;0.50;;
32323;SDS011;25666;44.350;9.222;2023-01-10T12:38:53;0.40;;;0.40;;
32323;SDS011;25666;44.350;9.222;2023-01-10T12:44:35;5.57;;;0.80;;
32323;SDS011;25666;44.350;9.222;2023-01-10T12:49:57;0.95;;;0.60;;
32323;SDS011;25666;44.350;9.222;2023-01-10T12:52:31;0.93;;;0.60;;
32323;SDS011;25666;44.350;9.222;2023-01-10T12:55:11;1.33;;;0.50;;
32323;SDS011;25666;44.350;9.222;2023-01-10T12:57:41;2.17;;;1.05;;
32323;SDS011;25666;44.350;9.222;2023-01-10T13:00:14;2.58;;;0.57;;
32323;SDS011;25666;44.350;9.222;2023-01-10T13:02:46;1.23;;;0.60;;
32323;SDS011;25666;44.350;9.222;2023-01-10T13:05:16;1.05;;;0.57;;
32323;SDS011;25666;44.350;9.222;2023-01-10T13:07:48;1.23;;;0.45;;
32323;SDS011;25666;44.350;9.222;2023-01-10T13:10:19;0.50;;;0.50;;
32323;SDS011;25666;44.350;9.222;2023-01-10T13:12:55;0.50;;;0.50;;
32323;SDS011;25666;44.350;9.222;2023-01-10T13:18:28;1.45;;;0.60;;
32323;SDS011;25666;44.350;9.222;2023-01-10T13:21:06;0.65;;;0.40;;
32323;SDS011;25666;44.350;9.222;2023-01-10T13:23:53;1.05;;;0.52;;
32323;SDS011;25666;44.350;9.222;2023-01-10T13:26:23;0.40;;;0.40;;
32323;SDS011;25666;44.350;9.222;2023-01-10T13:28:56;0.70;;;0.70;;
32323;SDS011;25666;44.350;9.222;2023-01-10T13:33:58;0.68;;;0.60;;
32323;SDS011;25666;44.350;9.222;2023-01-10T13:36:27;0.60;;;0.60;;
32323;SDS011;25666;44.350;9.222;2023-01-10T13:39:00;0.60;;;0.60;;
32323;SDS011;25666;44.350;9.222;2023-01-10T14:06:20;1.15;;;0.80;;
32323;SDS011;25666;44.350;9.222;2023-01-10T14:08:55;2.42;;;0.77;;
32323;SDS011;25666;44.350;9.222;2023-01-10T14:11:51;1.55;;;1.08;;
32323;SDS011;25666;44.350;9.222;2023-01-10T14:14:20;3.15;;;1.75;;
32323;SDS011;25666;44.350;9.222;2023-01-10T14:19:44;8.45;;;1.45;;
32323;SDS011;25666;44.350;9.222;2023-01-10T14:22:28;4.85;;;1.80;;
32323;SDS011;25666;44.350;9.222;2023-01-10T14:25:02;2.38;;;1.00;;
32323;SDS011;25666;44.350;9.222;2023-01-10T14:27:44;5.95;;;1.67;;
32323;SDS011;25666;44.350;9.222;2023-01-10T14:30:20;7.93;;;3.20;;
32323;SDS011;25666;44.350;9.222;2023-01-10T14:32:59;8.50;;;2.75;;
32323;SDS011;25666;44.350;9.222;2023-01-10T14:35:33;7.72;;;3.50;;
32323;SDS011;25666;44.350;9.222;2023-01-10T14:38:02;5.85;;;2.90;;
32323;SDS011;25666;44.350;9.222;2023-01-10T14:42:56;8.55;;;2.80;;
32323;SDS011;25666;44.350;9.222;2023-01-10T14:48:32;10.07;;;2.30;;
32323;SDS011;25666;44.350;9.222;2023-01-10T14:53:52;5.18;;;2.15;;
32323;SDS011;25666;44.350;9.222;2023-01-10T14:56:23;7.40;;;2.53;;
32323;SDS011;25666;44.350;9.222;2023-01-10T14:58:50;4.75;;;2.15;;
32323;SDS011;25666;44.350;9.222;2023-01-10T15:01:24;6.63;;;2.20;;
32323;SDS011;25666;44.350;9.222;2023-01-10T15:03:52;10.10;;;3.13;;
32323;SDS011;25666;44.350;9.222;2023-01-10T15:06:19;6.55;;;2.50;;
32323;SDS011;25666;44.350;9.222;2023-01-10T15:08:45;6.05;;;2.63;;
32323;SDS011;25666;44.350;9.222;2023-01-10T15:11:20;5.60;;;2.17;;
32323;SDS011;25666;44.350;9.222;2023-01-10T15:13:52;10.27;;;2.70;;
32323;SDS011;25666;44.350;9.222;2023-01-10T15:16:22;3.63;;;2.17;;
32323;SDS011;25666;44.350;9.222;2023-01-10T15:18:50;5.93;;;2.33;;
32323;SDS011;25666;44.350;9.222;2023-01-10T15:21:17;5.53;;;2.15;;
32323;SDS011;25666;44.350;9.222;2023-01-10T15:23:46;11.98;;;2.53;;
32323;SDS011;25666;44.350;9.222;2023-01-10T15:28:41;5.22;;;2.28;;
32323;SDS011;25666;44.350;9.222;2023-01-10T15:31:12;5.13;;;2.00;;
32323;SDS011;25666;44.350;9.222;2023-01-10T15:33:40;2.97;;;2.10;;
32323;SDS011;25666;44.350;9.222;2023-01-10T15:36:16;12.60;;;2.28;;
32323;SDS011;25666;44.350;9.222;2023-01-10T15:38:44;3.72;;;1.90;;
32323;SDS011;25666;44.350;9.222;2023-01-10T15:41:15;7.35;;;5.00;;
32323;SDS011;25666;44.350;9.222;2023-01-10T15:43:44;6.32;;;2.40;;
32323;SDS011;25666;44.350;9.222;2023-01-10T15:46:18;4.93;;;2.55;;
32323;SDS011;25666;44.350;9.222;2023-01-10T15:51:27;4.32;;;2.55;;
32323;SDS011;25666;44.350;9.222;2023-01-10T15:56:29;8.15;;;2.70;;
32323;SDS011;25666;44.350;9.222;2023-01-10T15:58:57;8.98;;;3.17;;
32323;SDS011;25666;44.350;9.222;2023-01-10T16:01:23;8.00;;;2.95;;
32323;SDS011;25666;44.350;9.222;2023-01-10T16:03:53;8.90;;;2.60;;
32323;SDS011;25666;44.350;9.222;2023-01-10T16:08:49;6.57;;;3.13;;
32323;SDS011;25666;44.350;9.222;2023-01-10T16:11:38;5.95;;;2.47;;
32323;SDS011;25666;44.350;9.222;2023-01-10T16:14:23;6.40;;;2.53;;
32323;SDS011;25666;44.350;9.222;2023-01-10T16:16:49;12.40;;;2.50;;
32323;SDS011;25666;44.350;9.222;2023-01-10T16:19:15;3.90;;;1.90;;
32323;SDS011;25666;44.350;9.222;2023-01-10T16:21:42;6.18;;;2.25;;
32323;SDS011;25666;44.350;9.222;2023-01-10T16:24:15;10.52;;;2.72;;
32323;SDS011;25666;44.350;9.222;2023-01-10T16:26:43;4.93;;;2.33;;
32323;SDS011;25666;44.350;9.222;2023-01-10T16:29:10;5.00;;;2.42;;
32323;SDS011;25666;44.350;9.222;2023-01-10T16:31:36;9.90;;;3.13;;
32323;SDS011;25666;44.350;9.222;2023-01-10T16:34:01;7.88;;;3.45;;
32323;SDS011;25666;44.350;9.222;2023-01-10T16:36:26;11.43;;;3.95;;
32323;SDS011;25666;44.350;9.222;2023-01-10T16:38:52;14.20;;;3.67;;
32323;SDS011;25666;44.350;9.222;2023-01-10T16:41:17;13.18;;;3.10;;
32323;SDS011;25666;44.350;9.222;2023-01-10T16:44:01;5.75;;;2.83;;
32323;SDS011;25666;44.350;9.222;2023-01-10T16:46:27;11.70;;;4.05;;
32323;SDS011;25666;44.350;9.222;2023-01-10T16:48:53;9.85;;;2.90;;
32323;SDS011;25666;44.350;9.222;2023-01-10T16:51:23;5.78;;;2.95;;
32323;SDS011;25666;44.350;9.222;2023-01-10T16:53:50;4.57;;;2.55;;
32323;SDS011;25666;44.350;9.222;2023-01-10T16:56:17;7.75;;;2.47;;
32323;SDS011;25666;44.350;9.222;2023-01-10T16:58:46;4.80;;;2.35;;
32323;SDS011;25666;44.350;9.222;2023-01-10T17:01:13;6.68;;;3.10;;
32323;SDS011;25666;44.350;9.222;2023-01-10T17:03:42;5.57;;;2.55;;
32323;SDS011;25666;44.350;9.222;2023-01-10T17:06:09;6.50;;;2.72;;
32323;SDS011;25666;44.350;9.222;2023-01-10T17:08:35;5.40;;;2.45;;
32323;SDS011;25666;44.350;9.222;2023-01-10T17:11:02;7.38;;;3.28;;
32323;SDS011;25666;44.350;9.222;2023-01-10T17:13:34;7.95;;;2.35;;